Flight Track Log - Related Links

Times and Time Zones

All times are in EST time to prevent confusion due to time zone crossing. See the UAL6073 flight status page for this flight to view local times or setup timezone preferences in your user account.

Time Position Orientation Groundspeed Altitude Reporting Facility
EST Latitude Longitude Course Direction KTS MPH feet Rate Location/Type
Thu 07:35:08 AM 46.8122 -100.8869 201° Southwest 251 289 5,700  Level Minneapolis Center
Thu 07:36:09 AM 46.7436 -100.9258 201° Southwest 262 302 8,700 2,557 Climbing Minneapolis Center
Thu 07:37:00 AM 46.3874 -100.9923 199° South  Level Estimated
Thu 07:37:10 AM 46.6756 -100.9617 200° South 264 304 10,900  Level Minneapolis Center
Thu 07:38:00 AM 46.2910 -101.0534 201° Southwest  Level Estimated
Thu 07:38:11 AM 46.5972 -101.0011 199° South 284 327 13,000  Level Minneapolis Center
Thu 07:39:00 AM 46.1948 -101.0986 198° South  Level FlightAware Approximate
Thu 07:39:12 AM 46.5153 -101.0394 198° South 304 350 14,400  Level Minneapolis Center
Thu 07:40:00 AM 46.0984 -101.1595 201° Southwest  Level Estimated
Thu 07:40:12 AM 46.4289 -101.0850 200° South 323 372 15,800  Level Minneapolis Center
Thu 07:41:13 AM 46.3386 -101.1297 199° South 337 388 17,400 1,721 Climbing Minneapolis Center
Thu 07:42:14 AM 46.2486 -101.1728 198° South 341 392 19,300 1,967 Climbing Minneapolis Center
Thu 07:43:15 AM 46.1633 -101.2161 199° South 334 384 21,400 1,869 Climbing Minneapolis Center
Thu 07:44:16 AM 46.0817 -101.2558 199° South 321 369 23,100 1,574 Climbing Minneapolis Center
Thu 07:45:17 AM 45.9989 -101.2942 198° South 315 362 24,600 1,672 Climbing Minneapolis Center
Thu 07:46:18 AM 45.8978 -101.3436 199° South 318 366 26,500 1,686 Climbing Minneapolis Center
Thu 07:47:18 AM 45.8144 -101.3831 198° South 319 367 28,000 1,537 Climbing Minneapolis Center
Thu 07:48:19 AM 45.7319 -101.4231 199° South 316 364 29,600 1,574 Climbing Minneapolis Center
Thu 07:49:20 AM 45.6528 -101.4611 199° South 310 357 31,200 1,623 Climbing Minneapolis Center
Thu 07:50:21 AM 45.5772 -101.4981 199° South 298 343 32,900 1,377 Climbing Minneapolis Center
Thu 07:51:22 AM 45.5056 -101.5314 198° South 283 326 34,000 541 Climbing Minneapolis Center
Thu 07:52:23 AM 45.4319 -101.5661 198° South 279 321 34,000  Level Minneapolis Center
Thu 07:53:24 AM 45.3478 -101.6053 198° South 301 346 34,000  Level Minneapolis Center
Thu 07:54:25 AM 45.2572 -101.6494 199° South 330 380 34,000  Level Minneapolis Center
Thu 07:55:26 AM 45.1617 -101.6933 198° South 350 403 34,000  Level Minneapolis Center
Thu 07:56:27 AM 45.0636 -101.7397 198° South 365 420 34,000  Level Minneapolis Center
Thu 07:57:28 AM 44.9656 -101.7856 198° South 371 427 34,000  Level Minneapolis Center
Thu 07:58:28 AM 44.8503 -101.8394 198° South 367 422 34,000  Level Minneapolis Center
Thu 07:59:29 AM 44.7536 -101.8842 198° South 366 421 34,000  Level Minneapolis Center
Thu 08:00:30 AM 44.6553 -101.9292 198° South 370 426 34,000  Level Minneapolis Center
Thu 08:01:13 AM 44.5947 -101.9550 197° South 373 429 34,000  Level Denver Center
Thu 08:02:26 AM 44.4958 -102.0006 198° South 375 432 34,000  Level Denver Center
Thu 08:03:26 AM 44.3772 -102.0556 198° South 376 433 34,000  Level Denver Center
Thu 08:04:26 AM 44.2750 -102.0989 197° South 381 438 34,000  Level Denver Center
Thu 08:05:27 AM 44.1536 -102.1531 198° South 383 441 34,000  Level Denver Center
Thu 08:06:27 AM 44.0506 -102.1961 197° South 385 443 34,000  Level Denver Center
Thu 08:07:28 AM 43.9489 -102.2403 197° South 385 443 34,000  Level Denver Center
Thu 08:08:28 AM 43.8569 -102.2833 199° South 381 438 34,000  Level Denver Center
Thu 08:09:28 AM 43.7594 -102.3253 197° South 382 440 34,000  Level Denver Center
Thu 08:10:29 AM 43.6467 -102.3750 198° South 383 441 34,000  Level Denver Center
Thu 08:11:29 AM 43.5494 -102.4172 197° South 383 441 34,000  Level Denver Center
Thu 08:12:30 AM 43.4500 -102.4594 197° South 389 448 34,000  Level Denver Center
Thu 08:13:30 AM 43.3361 -102.5083 197° South 382 440 34,000  Level Denver Center
Thu 08:14:31 AM 43.2394 -102.5511 198° South 382 440 34,000  Level Denver Center
Thu 08:15:31 AM 43.1414 -102.5922 197° South 383 441 34,000  Level Denver Center
Thu 08:16:32 AM 43.0431 -102.6328 197° South 385 443 34,000  Level Denver Center
Thu 08:17:32 AM 42.9308 -102.6803 197° South 379 436 34,000  Level Denver Center
Thu 08:18:33 AM 42.8350 -102.7231 198° South 379 436 34,000  Level Denver Center
Thu 08:19:33 AM 42.7386 -102.7639 197° South 378 435 34,000  Level Denver Center
Thu 08:20:34 AM 42.6261 -102.8119 197° South 379 436 34,000  Level Denver Center
Thu 08:21:35 AM 42.5281 -102.8517 197° South 383 441 34,000  Level Denver Center
Thu 08:22:35 AM 42.4319 -102.8933 198° South 380 437 34,000  Level Denver Center
Thu 08:23:36 AM 42.3169 -102.9417 197° South 386 444 34,000  Level Denver Center
Thu 08:24:37 AM 42.2197 -102.9819 197° South 381 438 34,000  Level Denver Center
Thu 08:25:37 AM 42.1225 -103.0214 197° South 380 437 34,000  Level Denver Center
Thu 08:26:38 AM 42.0233 -103.0628 197° South 385 443 34,000  Level Denver Center
Thu 08:27:38 AM 41.9119 -103.1083 197° South 375 432 34,000  Level Denver Center
Thu 08:28:39 AM 41.8119 -103.1500 197° South 388 447 34,000  Level Denver Center
Thu 08:29:40 AM 41.7142 -103.1900 197° South 385 443 34,000 -942 Level Denver Center
Thu 08:30:40 AM 41.5975 -103.2361 196° South 387 445 32,100 -992 Descending Denver Center
Thu 08:31:41 AM 41.4981 -103.2783 198° South 388 447 32,000 -49 Descending Denver Center
Thu 08:32:42 AM 41.4000 -103.3169 196° South 384 442 32,000  Level Denver Center
Thu 08:33:43 AM 41.2861 -103.3619 197° South 382 440 32,000  Level Denver Center
Thu 08:34:43 AM 41.1892 -103.4014 197° South 380 437 32,000  Level Denver Center
Thu 08:35:44 AM 41.0894 -103.4411 197° South 386 444 32,000  Level Denver Center
Thu 08:36:45 AM 40.9733 -103.4869 197° South 387 445 32,000 -537 Level Denver Center
Thu 08:37:58 AM 40.8517 -103.5433 199° South 386 444 30,800 -1,444 Descending Denver Center
Thu 08:38:58 AM 40.7531 -103.5942 201° Southwest 381 438 28,800 -2,033 Descending Denver Center
Thu 08:39:59 AM 40.6567 -103.6431 201° Southwest 373 429 26,700 -2,115 Descending Denver Center
Thu 08:41:00 AM 40.5717 -103.7086 210° Southwest 356 410 24,500 -1,967 Descending Denver Center
Thu 08:42:01 AM 40.5072 -103.7989 227° Southwest 339 390 22,700 -1,721 Descending Denver Center
Thu 08:43:02 AM 40.4428 -103.8869 226° Southwest 332 382 21,000 -1,574 Descending Denver Center
Thu 08:44:03 AM 40.3842 -103.9669 226° Southwest 302 348 19,500 -1,686 Descending Denver Center
Thu 08:45:03 AM 40.3561 -104.0703 250° West 287 330 17,600 -1,488 Descending Denver Center
Thu 08:46:04 AM 40.3556 -104.1614 270° West 254 292 16,500 -1,082 Descending Denver Center
Thu 08:47:05 AM 40.3544 -104.2414 269° West 226 260 15,400 -1,230 Descending Denver Center
Thu 08:48:06 AM 40.3528 -104.3206 268° West 220 253 14,000 -1,180 Descending Denver Center
Thu 08:49:07 AM 40.3339 -104.4019 253° West 231 266 13,000 -1,230 Descending Denver Center
Thu 08:50:08 AM 40.3128 -104.4772 250° West 229 264 11,500 -1,488 Descending Denver Center
Thu 08:51:08 AM 40.2908 -104.5606 251° West 226 260 10,000 -744 Descending Denver Center
Thu 08:52:09 AM 40.2514 -104.6233 231° Southwest 225 259 10,000  Level Denver Center
Thu 08:53:10 AM 40.2039 -104.6753 220° Southwest 230 265 10,000 -49 Level Denver Center
Thu 08:54:11 AM 40.1361 -104.6850 186° South 245 282 9,900 -639 Descending Denver Center
Thu 08:55:12 AM 40.0728 -104.6842 179° South 228 262 8,700 -1,082 Descending Denver Center
Thu 08:56:13 AM 40.0172 -104.6853 181° South 188 216 7,700 -885 Descending Denver Center
Thu 08:57:14 AM 39.9753 -104.6858 181° South 156 180 6,900 -787 Descending Denver Center
Thu 08:58:15 AM 39.9336 -104.6861 180° South 151 174 6,100 -793 Descending Denver Center
Thu 08:59:15 AM 39.8903 -104.6869 181° South 154 177 5,300 -800 Descending Denver Center

Login

Don't have an account? Register now (free) for customized features, flight alerts, and more!